createdAt,value
2018-05-25T00:00:19.519Z,4.00
2018-05-25T00:02:46.946Z,4.10
2018-05-25T00:05:15.197Z,4.30
2018-05-25T00:07:42.646Z,3.73
2018-05-25T00:10:10.114Z,4.20
2018-05-25T00:12:37.578Z,4.23
2018-05-25T00:15:05.053Z,4.60
2018-05-25T00:17:32.507Z,4.20
2018-05-25T00:20:00.053Z,3.97
2018-05-25T00:22:27.624Z,4.30
2018-05-25T00:24:55.090Z,4.23
2018-05-25T00:27:22.554Z,4.30
2018-05-25T00:29:49.993Z,4.17
2018-05-25T00:32:17.493Z,4.13
2018-05-25T00:34:45.040Z,4.13
2018-05-25T00:37:12.492Z,4.20
2018-05-25T00:39:40.003Z,4.37
2018-05-25T00:42:07.421Z,3.90
2018-05-25T00:44:35.245Z,4.03
2018-05-25T00:47:03.453Z,4.17
2018-05-25T00:49:30.921Z,4.30
2018-05-25T00:51:58.367Z,4.13
2018-05-25T00:54:25.871Z,3.40
2018-05-25T00:56:53.329Z,3.60
2018-05-25T00:59:20.787Z,3.73
2018-05-25T01:01:48.358Z,2.93
2018-05-25T01:04:15.826Z,3.70
2018-05-25T01:06:43.294Z,4.00
2018-05-25T01:09:10.760Z,3.63
2018-05-25T01:11:38.223Z,4.80
2018-05-25T01:14:05.686Z,4.43
2018-05-25T01:16:33.153Z,4.50
2018-05-25T01:19:02.121Z,4.13
2018-05-25T01:21:29.569Z,3.77
2018-05-25T01:23:57.024Z,4.77
2018-05-25T01:26:24.466Z,4.33
2018-05-25T01:28:51.981Z,4.40
2018-05-25T01:31:19.421Z,4.33
2018-05-25T01:33:46.880Z,4.60
2018-05-25T01:36:14.321Z,4.67
2018-05-25T01:38:41.849Z,5.30
2018-05-25T01:41:09.307Z,5.43
2018-05-25T01:43:36.740Z,5.63
2018-05-25T01:46:04.214Z,4.73
2018-05-25T01:48:31.685Z,5.27
2018-05-25T01:50:59.236Z,4.83
2018-05-25T01:53:26.709Z,5.40
2018-05-25T01:55:54.260Z,5.53
2018-05-25T01:58:21.732Z,4.80
2018-05-25T02:00:49.288Z,4.90
2018-05-25T02:03:17.164Z,4.40
2018-05-25T02:05:44.615Z,4.80
2018-05-25T02:08:12.072Z,5.40
2018-05-25T02:10:39.536Z,5.40
2018-05-25T02:13:07.021Z,5.30
2018-05-25T02:15:34.484Z,5.30
2018-05-25T02:18:02.039Z,4.60
2018-05-25T02:20:29.480Z,5.60
2018-05-25T02:22:56.966Z,5.40
2018-05-25T02:25:24.429Z,4.37
2018-05-25T02:27:51.890Z,4.30
2018-05-25T02:30:19.358Z,4.13
2018-05-25T02:32:46.820Z,4.40
2018-05-25T02:35:14.265Z,4.40
2018-05-25T02:37:41.743Z,4.30
2018-05-25T02:40:09.321Z,4.47
2018-05-25T02:42:36.795Z,4.47
2018-05-25T02:45:04.337Z,4.20
2018-05-25T02:47:31.798Z,4.33
2018-05-25T02:49:59.255Z,4.37
2018-05-25T02:52:26.833Z,5.03
2018-05-25T02:54:54.308Z,5.37
2018-05-25T02:57:21.798Z,5.70
2018-05-25T02:59:49.318Z,5.67
2018-05-25T03:02:16.765Z,6.93
2018-05-25T03:04:44.219Z,6.30
2018-05-25T03:07:11.670Z,7.40
2018-05-25T03:09:39.146Z,6.50
2018-05-25T03:12:06.609Z,6.87
2018-05-25T03:14:34.053Z,6.37
2018-05-25T03:17:02.368Z,6.23
2018-05-25T03:19:30.541Z,5.70
2018-05-25T03:21:57.986Z,6.00
2018-05-25T03:24:25.458Z,4.87
2018-05-25T03:26:52.924Z,4.63
2018-05-25T03:29:20.369Z,4.70
2018-05-25T03:31:47.870Z,5.23
2018-05-25T03:34:15.326Z,4.97
2018-05-25T03:36:42.769Z,5.10
2018-05-25T03:39:10.213Z,5.23
2018-05-25T03:41:37.680Z,6.13
2018-05-25T03:44:05.147Z,6.30
2018-05-25T03:46:32.612Z,5.73
2018-05-25T03:49:00.085Z,5.77
2018-05-25T03:51:27.563Z,5.20
2018-05-25T03:53:55.221Z,4.20
2018-05-25T03:56:22.681Z,5.07
2018-05-25T03:59:02.129Z,4.20
2018-05-25T04:01:41.573Z,4.50
2018-05-25T04:04:08.998Z,4.77
2018-05-25T04:06:36.461Z,4.77
2018-05-25T04:09:03.958Z,5.30
2018-05-25T04:11:31.416Z,5.57
2018-05-25T04:13:58.973Z,6.23
2018-05-25T04:16:26.412Z,6.43
2018-05-25T04:18:53.907Z,6.17
2018-05-25T04:21:21.374Z,6.63
2018-05-25T04:23:48.929Z,4.93
2018-05-25T04:26:16.394Z,5.67
2018-05-25T04:28:43.865Z,5.53
2018-05-25T04:31:11.305Z,6.03
2018-05-25T04:33:38.782Z,5.40
2018-05-25T04:36:06.445Z,5.40
2018-05-25T04:38:33.884Z,5.67
2018-05-25T04:41:01.370Z,5.50
2018-05-25T04:43:28.829Z,5.80
2018-05-25T04:45:56.269Z,6.17
2018-05-25T04:48:23.764Z,8.03
2018-05-25T04:50:51.226Z,7.10
2018-05-25T04:53:18.666Z,7.40
2018-05-25T04:55:46.139Z,7.17
2018-05-25T04:58:13.604Z,7.47
2018-05-25T05:00:41.063Z,7.27
2018-05-25T05:03:08.521Z,6.67
2018-05-25T05:05:35.968Z,8.13
2018-05-25T05:08:03.476Z,7.20
2018-05-25T05:10:30.917Z,8.40
2018-05-25T05:12:58.385Z,9.83
2018-05-25T05:15:25.862Z,10.23
2018-05-25T05:17:53.316Z,9.90
2018-05-25T05:20:20.828Z,10.10
2018-05-25T05:22:48.246Z,10.73
2018-05-25T05:25:15.717Z,10.87
2018-05-25T05:27:43.185Z,10.50
2018-05-25T05:30:10.662Z,11.50
2018-05-25T05:32:38.880Z,10.43
2018-05-25T05:35:06.372Z,10.73
2018-05-25T05:37:33.819Z,10.20
2018-05-25T05:40:01.285Z,10.50
2018-05-25T05:42:28.754Z,10.50
2018-05-25T05:44:56.316Z,11.43
2018-05-25T05:47:23.772Z,10.33
2018-05-25T05:49:51.238Z,10.97
2018-05-25T05:52:18.692Z,10.30
2018-05-25T05:54:46.165Z,11.23
2018-05-25T05:57:13.613Z,10.27
2018-05-25T05:59:41.064Z,9.73
2018-05-25T06:02:08.537Z,9.33
2018-05-25T06:04:36.017Z,9.47
2018-05-25T06:07:03.493Z,10.87
2018-05-25T06:09:30.941Z,8.87
2018-05-25T06:11:58.413Z,10.40
2018-05-25T06:14:25.881Z,10.10
2018-05-25T06:16:53.346Z,9.90
2018-05-25T06:19:20.810Z,9.10
2018-05-25T06:21:48.272Z,10.00
2018-05-25T06:24:15.740Z,8.63
2018-05-25T06:26:43.285Z,8.77
2018-05-25T06:29:10.719Z,9.13
2018-05-25T06:31:38.306Z,9.07
2018-05-25T06:34:05.791Z,9.13
2018-05-25T06:36:33.242Z,9.53
2018-05-25T06:39:00.710Z,9.23
2018-05-25T06:41:28.183Z,9.33
2018-05-25T06:43:55.661Z,9.67
2018-05-25T06:46:23.914Z,8.47
2018-05-25T06:48:51.474Z,8.80
2018-05-25T06:51:18.934Z,8.30
2018-05-25T06:53:46.373Z,8.63
2018-05-25T06:56:13.833Z,9.20
2018-05-25T06:58:41.303Z,8.93
2018-05-25T07:01:08.790Z,8.53
2018-05-25T07:03:36.225Z,7.73
2018-05-25T07:06:03.687Z,8.47
2018-05-25T07:08:31.157Z,8.23
2018-05-25T07:10:58.593Z,6.87
2018-05-25T07:13:26.057Z,6.57
2018-05-25T07:15:53.587Z,6.70
2018-05-25T07:18:21.150Z,6.50
2018-05-25T07:20:48.612Z,5.87
2018-05-25T07:23:16.060Z,6.00
2018-05-25T07:25:43.512Z,6.20
2018-05-25T07:28:10.989Z,6.10
2018-05-25T07:30:38.533Z,6.03
2018-05-25T07:33:06.004Z,6.17
2018-05-25T07:35:33.447Z,5.83
2018-05-25T07:38:00.909Z,5.90
2018-05-25T07:40:28.341Z,5.97
2018-05-25T07:42:56.576Z,5.53
2018-05-25T07:45:24.019Z,5.27
2018-05-25T07:47:51.486Z,5.17
2018-05-25T07:50:18.935Z,6.30
2018-05-25T07:52:46.388Z,5.07
2018-05-25T07:55:13.933Z,5.40
2018-05-25T07:57:42.154Z,5.67
2018-05-25T08:00:09.603Z,5.10
2018-05-25T08:02:37.042Z,5.77
2018-05-25T08:05:04.552Z,5.50
2018-05-25T08:07:33.110Z,5.67
2018-05-25T08:10:00.593Z,5.63
2018-05-25T08:12:28.046Z,4.90
2018-05-25T08:14:56.396Z,5.77
2018-05-25T08:17:23.859Z,5.77
2018-05-25T08:19:51.322Z,4.93
2018-05-25T08:22:18.841Z,4.37
2018-05-25T08:24:46.412Z,5.07
2018-05-25T08:27:13.874Z,4.90
2018-05-25T08:29:41.330Z,5.00
2018-05-25T08:32:08.796Z,5.00
2018-05-25T08:34:39.219Z,4.47
2018-05-25T08:37:06.673Z,4.80
2018-05-25T08:39:34.156Z,4.40
2018-05-25T08:42:01.599Z,4.60
2018-05-25T08:44:29.049Z,4.53
2018-05-25T08:46:56.496Z,4.43
2018-05-25T08:49:23.959Z,3.13
2018-05-25T08:51:51.605Z,3.57
2018-05-25T08:54:18.853Z,4.00
2018-05-25T08:56:47.102Z,4.23
2018-05-25T08:59:14.553Z,3.63
2018-05-25T09:01:42.013Z,3.73
2018-05-25T09:04:09.574Z,3.70
2018-05-25T09:06:37.142Z,3.63
2018-05-25T09:09:05.467Z,4.50
2018-05-25T09:11:33.701Z,3.60
2018-05-25T09:14:01.141Z,3.73
2018-05-25T09:16:28.631Z,3.50
2018-05-25T09:18:56.078Z,3.37
2018-05-25T09:21:23.537Z,3.30
2018-05-25T09:23:51.017Z,2.90
2018-05-25T09:26:18.490Z,3.57
2018-05-25T09:28:45.944Z,3.37
2018-05-25T09:31:13.412Z,3.00
2018-05-25T09:33:40.869Z,3.17
2018-05-25T09:36:08.350Z,2.90
2018-05-25T09:38:35.790Z,3.03
2018-05-25T09:41:03.229Z,3.17
2018-05-25T09:43:30.717Z,3.03
2018-05-25T09:45:58.189Z,3.70
2018-05-25T09:48:25.635Z,3.20
2018-05-25T09:50:53.104Z,3.23
2018-05-25T09:53:20.556Z,3.30
2018-05-25T09:55:48.027Z,2.90
2018-05-25T09:58:15.497Z,2.70
2018-05-25T10:00:42.984Z,2.67
2018-05-25T10:03:10.464Z,2.90
2018-05-25T10:05:37.905Z,2.80
2018-05-25T10:08:05.356Z,3.03
2018-05-25T10:10:32.904Z,2.93
2018-05-25T10:13:00.381Z,3.10
2018-05-25T10:15:27.839Z,2.77
2018-05-25T10:17:55.352Z,3.13
2018-05-25T10:20:22.757Z,3.57
2018-05-25T10:22:50.254Z,3.33
2018-05-25T10:25:17.729Z,3.10
2018-05-25T10:27:45.173Z,3.10
2018-05-25T10:30:12.650Z,2.80
2018-05-25T10:32:40.884Z,2.83
2018-05-25T10:35:08.492Z,2.73
2018-05-25T10:37:35.926Z,2.93
2018-05-25T10:40:03.401Z,2.60
2018-05-25T10:42:32.375Z,3.60
2018-05-25T10:44:59.933Z,3.80
2018-05-25T10:47:27.392Z,3.00
2018-05-25T10:49:54.845Z,2.93
2018-05-25T10:52:22.285Z,3.10
2018-05-25T10:54:49.753Z,3.00
2018-05-25T10:57:17.228Z,3.00
2018-05-25T10:59:44.696Z,2.83
2018-05-25T11:02:12.193Z,3.17
2018-05-25T11:04:39.656Z,3.07
2018-05-25T11:07:07.213Z,2.93
2018-05-25T11:09:34.681Z,3.50
2018-05-25T11:12:02.130Z,3.23
2018-05-25T11:14:29.590Z,3.00
2018-05-25T11:16:57.064Z,3.10
2018-05-25T11:19:24.523Z,3.30
2018-05-25T11:21:51.978Z,3.67
2018-05-25T11:24:19.433Z,3.30
2018-05-25T11:26:46.891Z,3.20
2018-05-25T11:29:14.342Z,3.23
2018-05-25T11:31:41.829Z,3.27
2018-05-25T11:34:09.270Z,2.93
2018-05-25T11:36:36.729Z,3.73
2018-05-25T11:39:04.168Z,3.60
2018-05-25T11:41:31.633Z,3.50
2018-05-25T11:43:59.098Z,3.83
2018-05-25T11:46:27.324Z,3.00
2018-05-25T11:48:54.881Z,3.47
2018-05-25T11:51:22.322Z,2.83
2018-05-25T11:53:49.787Z,2.60
2018-05-25T11:56:17.229Z,2.63
2018-05-25T11:58:44.743Z,2.87
2018-05-25T12:01:12.198Z,3.10
2018-05-25T12:03:39.663Z,2.87
2018-05-25T12:06:07.234Z,2.80
2018-05-25T12:08:34.689Z,2.50
2018-05-25T12:11:02.277Z,2.53
2018-05-25T12:13:29.721Z,2.97
2018-05-25T12:15:57.181Z,3.37
2018-05-25T12:18:24.647Z,3.00
2018-05-25T12:20:52.091Z,3.00
2018-05-25T12:23:19.534Z,2.83
2018-05-25T12:25:46.994Z,2.73
2018-05-25T12:28:14.433Z,3.00
2018-05-25T12:30:42.778Z,2.83
2018-05-25T12:33:10.237Z,3.00
2018-05-25T12:35:37.798Z,3.03
2018-05-25T12:38:05.269Z,2.90
2018-05-25T12:40:32.786Z,2.77
2018-05-25T12:43:00.195Z,2.90
2018-05-25T12:45:27.656Z,2.90
2018-05-25T12:47:55.122Z,2.90
2018-05-25T12:50:22.592Z,2.70
2018-05-25T12:52:50.020Z,2.90
2018-05-25T12:55:17.485Z,2.90
2018-05-25T12:57:44.971Z,2.80
2018-05-25T13:00:12.422Z,2.73
2018-05-25T13:02:39.986Z,3.00
2018-05-25T13:05:07.428Z,2.80
2018-05-25T13:07:34.875Z,2.83
2018-05-25T13:10:02.345Z,3.00
2018-05-25T13:12:29.792Z,2.90
2018-05-25T13:14:58.113Z,2.47
2018-05-25T13:17:25.577Z,2.80
2018-05-25T13:19:53.036Z,2.60
2018-05-25T13:22:20.514Z,2.60
2018-05-25T13:24:47.961Z,2.80
2018-05-25T13:27:15.536Z,2.77
2018-05-25T13:29:42.974Z,3.20
2018-05-25T13:32:10.536Z,2.97
2018-05-25T13:34:38.021Z,2.93
2018-05-25T13:37:05.470Z,3.17
2018-05-25T13:39:32.951Z,3.23
2018-05-25T13:42:00.421Z,3.20
2018-05-25T13:44:27.969Z,3.17
2018-05-25T13:46:55.429Z,3.40
2018-05-25T13:49:22.934Z,3.07
2018-05-25T13:51:50.338Z,3.30
2018-05-25T13:54:17.825Z,3.20
2018-05-25T13:56:45.292Z,3.53
2018-05-25T13:59:12.753Z,3.27
2018-05-25T14:01:40.204Z,3.10
2018-05-25T14:04:07.770Z,2.97
2018-05-25T14:06:35.249Z,3.10
2018-05-25T14:09:02.701Z,3.50
2018-05-25T14:11:30.261Z,3.27
2018-05-25T14:13:57.742Z,3.20
2018-05-25T14:16:25.184Z,3.33
2018-05-25T14:18:52.754Z,2.93
2018-05-25T14:21:20.274Z,3.27
2018-05-25T14:23:48.610Z,2.97
2018-05-25T14:26:16.083Z,3.13
2018-05-25T14:28:43.534Z,2.93
2018-05-25T14:31:11.128Z,3.60
2018-05-25T14:33:38.580Z,3.53
2018-05-25T14:36:06.033Z,3.67
2018-05-25T14:38:33.504Z,3.27
2018-05-25T14:41:00.979Z,3.43
2018-05-25T14:43:28.433Z,3.60
2018-05-25T14:45:55.882Z,3.40
2018-05-25T14:48:23.390Z,3.03
2018-05-25T14:50:51.633Z,3.60
2018-05-25T14:53:19.101Z,3.33
2018-05-25T14:55:47.332Z,3.20
2018-05-25T14:58:14.818Z,3.57
2018-05-25T15:00:42.257Z,3.33
2018-05-25T15:03:09.725Z,3.53
2018-05-25T15:05:37.217Z,3.30
2018-05-25T15:08:04.680Z,3.20
2018-05-25T15:10:32.137Z,3.33
2018-05-25T15:12:59.594Z,4.20
2018-05-25T15:15:27.053Z,3.83
2018-05-25T15:17:54.521Z,3.77
2018-05-25T15:20:22.077Z,3.00
2018-05-25T15:22:49.557Z,3.37
2018-05-25T15:25:17.013Z,3.50
2018-05-25T15:27:44.476Z,3.07
2018-05-25T15:30:11.929Z,3.77
2018-05-25T15:32:39.419Z,3.40
2018-05-25T15:35:06.853Z,3.50
2018-05-25T15:37:34.336Z,3.13
2018-05-25T15:40:01.794Z,3.20
2018-05-25T15:42:29.257Z,3.40
2018-05-25T15:44:56.806Z,3.00
2018-05-25T15:47:24.274Z,3.23
2018-05-25T15:49:51.733Z,3.30
2018-05-25T15:52:19.229Z,3.27
2018-05-25T15:54:46.765Z,3.13
2018-05-25T15:57:14.206Z,3.30
2018-05-25T15:59:41.675Z,3.40
2018-05-25T16:02:09.181Z,2.90
2018-05-25T16:04:36.631Z,3.00
2018-05-25T16:07:04.074Z,3.20
2018-05-25T16:09:31.537Z,2.90
2018-05-25T16:11:58.997Z,2.80
2018-05-25T16:14:26.457Z,2.70
2018-05-25T16:16:54.456Z,2.83
2018-05-25T16:19:21.922Z,2.57
2018-05-25T16:21:49.380Z,2.77
2018-05-25T16:24:16.846Z,2.50
2018-05-25T16:26:44.386Z,2.80
2018-05-25T16:29:11.852Z,2.77
2018-05-25T16:31:39.297Z,2.90
2018-05-25T16:34:06.775Z,3.30
2018-05-25T16:36:34.225Z,2.80
2018-05-25T16:39:01.679Z,2.80
2018-05-25T16:41:29.174Z,2.80
2018-05-25T16:43:56.720Z,2.93
2018-05-25T16:46:24.180Z,3.13
2018-05-25T16:48:51.656Z,3.27
2018-05-25T16:51:19.092Z,2.83
2018-05-25T16:53:46.560Z,3.23
2018-05-25T16:56:13.999Z,2.80
2018-05-25T16:58:41.505Z,3.23
2018-05-25T17:01:09.049Z,2.90
2018-05-25T17:03:36.498Z,2.53
2018-05-25T17:06:03.961Z,2.97
2018-05-25T17:08:31.411Z,2.63
2018-05-25T17:10:59.645Z,2.90
2018-05-25T17:13:27.082Z,2.70
2018-05-25T17:15:54.556Z,2.90
2018-05-25T17:18:22.020Z,2.93
2018-05-25T17:20:49.489Z,2.50
2018-05-25T17:23:16.932Z,2.50
2018-05-25T17:25:44.401Z,2.63
2018-05-25T17:28:11.841Z,2.77
2018-05-25T17:30:39.374Z,2.90
2018-05-25T17:33:06.785Z,2.53
2018-05-25T17:35:34.251Z,2.90
2018-05-25T17:38:01.730Z,2.83
2018-05-25T17:40:29.174Z,2.60
2018-05-25T17:42:56.674Z,3.07
2018-05-25T17:45:24.128Z,2.87
2018-05-25T17:47:51.572Z,2.60
2018-05-25T17:50:19.041Z,2.67
2018-05-25T17:52:46.481Z,2.47
2018-05-25T17:55:13.937Z,2.20
2018-05-25T17:57:41.402Z,2.47
2018-05-25T18:00:08.840Z,2.40
2018-05-25T18:02:36.352Z,2.30
2018-05-25T18:05:03.814Z,2.50
2018-05-25T18:07:31.256Z,2.60
2018-05-25T18:09:58.725Z,2.47
2018-05-25T18:12:26.178Z,2.40
2018-05-25T18:14:55.273Z,2.57
2018-05-25T18:17:22.776Z,2.47
2018-05-25T18:19:50.184Z,2.50
2018-05-25T18:22:17.647Z,2.37
2018-05-25T18:24:45.114Z,2.50
2018-05-25T18:27:12.594Z,2.30
2018-05-25T18:29:40.078Z,2.40
2018-05-25T18:32:07.553Z,2.37
2018-05-25T18:34:35.004Z,2.60
2018-05-25T18:37:02.454Z,2.20
2018-05-25T18:39:29.923Z,2.57
2018-05-25T18:41:57.391Z,2.37
2018-05-25T18:44:24.841Z,2.40
2018-05-25T18:46:52.302Z,2.60
2018-05-25T18:49:19.769Z,2.40
2018-05-25T18:51:47.234Z,2.70
2018-05-25T18:54:26.572Z,2.70
2018-05-25T18:56:54.129Z,2.37
2018-05-25T18:59:21.612Z,2.93
2018-05-25T19:01:49.157Z,2.80
2018-05-25T19:04:16.605Z,2.87
2018-05-25T19:06:44.061Z,3.07
2018-05-25T19:09:11.524Z,2.87
2018-05-25T19:11:38.994Z,2.93
2018-05-25T19:14:06.454Z,3.13
2018-05-25T19:16:33.917Z,3.43
2018-05-25T19:19:01.377Z,3.10
2018-05-25T19:21:28.829Z,3.27
2018-05-25T19:23:56.336Z,3.70
2018-05-25T19:26:23.809Z,3.47
2018-05-25T19:28:51.245Z,3.40
2018-05-25T19:31:18.708Z,3.40
2018-05-25T19:33:46.162Z,3.50
2018-05-25T19:36:13.634Z,3.43
2018-05-25T19:38:41.138Z,3.33
2018-05-25T19:41:08.549Z,3.43
2018-05-25T19:43:35.990Z,3.70
2018-05-25T19:46:03.454Z,3.10
2018-05-25T19:48:30.905Z,3.23
2018-05-25T19:50:58.366Z,3.40
2018-05-25T19:53:25.806Z,3.57
2018-05-25T19:55:54.028Z,3.83
2018-05-25T19:58:21.478Z,3.87
2018-05-25T20:00:48.909Z,3.70
2018-05-25T20:03:17.162Z,3.93
2018-05-25T20:05:44.601Z,3.90
2018-05-25T20:08:12.075Z,4.07
2018-05-25T20:10:39.537Z,3.83
2018-05-25T20:13:06.989Z,3.47
2018-05-25T20:15:34.462Z,3.83
2018-05-25T20:18:02.041Z,3.83
2018-05-25T20:20:29.510Z,3.20
2018-05-25T20:22:56.973Z,3.63
2018-05-25T20:25:24.408Z,3.57
2018-05-25T20:27:51.979Z,3.80
2018-05-25T20:30:19.441Z,3.97
2018-05-25T20:32:46.905Z,4.23
2018-05-25T20:35:14.352Z,3.87
2018-05-25T20:37:41.818Z,3.67
2018-05-25T20:40:09.269Z,4.10
2018-05-25T20:42:36.729Z,4.20
2018-05-25T20:45:04.218Z,3.83
2018-05-25T20:47:31.773Z,3.73
2018-05-25T20:49:59.269Z,4.10
2018-05-25T20:52:26.727Z,3.87
2018-05-25T20:54:54.190Z,4.33
2018-05-25T20:57:23.811Z,4.30
2018-05-25T20:59:54.761Z,4.30
2018-05-25T21:02:23.210Z,3.83
2018-05-25T21:04:50.782Z,3.90
2018-05-25T21:07:18.225Z,3.93
2018-05-25T21:09:45.807Z,3.30
2018-05-25T21:12:13.283Z,3.53
2018-05-25T21:14:40.838Z,3.80
2018-05-25T21:17:08.494Z,3.47
2018-05-25T21:19:35.940Z,4.00
2018-05-25T21:22:03.431Z,4.30
2018-05-25T21:24:30.894Z,3.63
2018-05-25T21:26:58.396Z,3.70
2018-05-25T21:29:26.729Z,4.00
2018-05-25T21:31:54.289Z,3.43
2018-05-25T21:34:21.765Z,3.90
2018-05-25T21:36:49.317Z,4.07
2018-05-25T21:39:17.477Z,3.73
2018-05-25T21:41:44.923Z,3.60
2018-05-25T21:44:12.381Z,3.63
2018-05-25T21:46:39.825Z,4.43
2018-05-25T21:49:08.057Z,3.47
2018-05-25T21:51:35.525Z,4.27
2018-05-25T21:54:02.993Z,3.97
2018-05-25T21:56:30.445Z,4.07
2018-05-25T21:58:57.913Z,3.90
2018-05-25T22:01:25.359Z,4.23
2018-05-25T22:03:52.825Z,4.23
2018-05-25T22:06:20.276Z,3.93
2018-05-25T22:08:47.708Z,4.10
2018-05-25T22:11:15.946Z,4.20
2018-05-25T22:13:43.397Z,4.10
2018-05-25T22:16:10.862Z,4.33
2018-05-25T22:18:38.309Z,4.30
2018-05-25T22:21:05.762Z,4.73
2018-05-25T22:23:33.241Z,4.67
2018-05-25T22:26:00.723Z,4.50
2018-05-25T22:28:28.181Z,4.40
2018-05-25T22:30:55.641Z,4.63
2018-05-25T22:33:23.139Z,4.03
2018-05-25T22:35:50.561Z,4.47
2018-05-25T22:38:18.063Z,4.03
2018-05-25T22:40:45.509Z,3.50
2018-05-25T22:43:24.988Z,4.60
2018-05-25T22:46:04.477Z,4.47
2018-05-25T22:48:43.849Z,4.40
2018-05-25T22:51:24.036Z,4.60
2018-05-25T22:53:56.694Z,4.40
2018-05-25T22:56:24.160Z,4.87
2018-05-25T22:58:51.609Z,4.33
2018-05-25T23:01:19.937Z,4.43
2018-05-25T23:03:47.431Z,4.60
2018-05-25T23:06:14.965Z,4.17
2018-05-25T23:08:42.414Z,4.80
2018-05-25T23:11:10.653Z,4.60
2018-05-25T23:13:38.876Z,4.43
2018-05-25T23:16:06.333Z,4.13
2018-05-25T23:18:33.832Z,4.67
2018-05-25T23:21:01.269Z,3.83
2018-05-25T23:23:28.724Z,4.63
2018-05-25T23:25:56.170Z,4.77
2018-05-25T23:28:23.637Z,4.17
2018-05-25T23:30:51.106Z,4.37
2018-05-25T23:33:18.588Z,4.80
2018-05-25T23:35:46.049Z,4.93
2018-05-25T23:38:13.545Z,4.57
2018-05-25T23:40:41.014Z,5.00
2018-05-25T23:43:08.463Z,5.20
2018-05-25T23:45:35.933Z,5.10
2018-05-25T23:48:03.390Z,5.20
2018-05-25T23:53:22.334Z,5.00
2018-05-25T23:55:49.806Z,5.17
2018-05-25T23:58:17.254Z,4.90
